Surry, ME (04684)

10:41 PM EDT on August 30, 2014 (GMT -0400)
Dollard Hill | Change Station
CLOSE
Current Station
Personal Weather Station
Location: Ellsworth, ME
Elevation: 486 ft
Nearby Weather Stations

Elev 486 ft 44.55 °N, 68.51 °W | Updated 2 seconds ago

Partly Cloudy
Partly Cloudy
56.3 °F
Feels Like 56.3 °F
N
0.0
Wind Variable Wind from SSW
Gusts 4.0 mph

Today
High -- | Low -- °F
--% Chance of Precip.
Yesterday
High -- | Low -- °F
Precip. -- in
5:54 AM 7:14 PM
Waxing Crescent, 26% visible
Pressure 30.12 in
Visibility 10.0 miles
Clouds Clear
Dew Point 54 °F
Humidity 94%
Rainfall 0.00 in
Snow Depth Not available.
UV 0 out of 12
Pollen 6.80 out of 12
Ozone Good
PM2.5 Good
Flu Activity Not available.
METAR KBHB 310235Z 19009KT 10SM CLR 16/14 A3012 RMK AO1

More Conditions Fewer Conditions

Pressure 30.12 in
Visibility 10.0 miles
Clouds Clear
Dew Point 54 °F
Humidity 94%
Rainfall 0.00 in
Snow Depth Not available.
UV 0 out of 12
Pollen 6.80 out of 12
Ozone Good
PM2.5 Good
Flu Activity Not available.
METAR KBHB 310235Z 19009KT 10SM CLR 16/14 A3012 RMK AO1

More Conditions Fewer Conditions

10-Day Weather Forecast

Almanac

Astronomy

Aug. 30, 2014 Rise Set
Actual Time 5:54 AM EDT 7:14 PM EDT
Civil Twilight 5:24 AM EDT 7:44 PM EDT
Nautical Twilight 4:47 AM EDT 8:20 PM EDT
Astronomical Twilight 4:09 AM EDT 8:58 PM EDT
Moon 10:51 AM EDT (8/30) 9:33 PM EDT (8/30)
Length of Visible Light 14h 20m
Length of Day
13h 19m
Tomorrow will be 2m 57s shorter.
Waxing Crescent, 26% of the Moon is Illuminated
Today
Waxing Crescent
Sep 2
First Quarter
Sep 8
Full
Sep 15
Last Quarter
Sep 24
New

Today's Extremes

State Highs State Lows

Community

WunderPhotos

Upload Photos

1,748,749 photos uploaded!

Nearby

Air Quality

  Air Quality AQ Index Pollutant
Yesterday Good
OZONE
Yesterday Good
PM2.5
Current Good
OZONE
Current Good
PM2.5
Saturday Good
OZONE
Saturday Good
PM2.5
Sunday Good
OZONE
Sunday Good
PM2.5
Monday Good
OZONE
Monday Good
PM2.5
Tuesday Good
OZONE
Tuesday Good
PM2.5
Wednesday Good
OZONE
Wednesday Good
PM2.5

Snow Depth

Station Depth Elevation
No new snow has been reported.

Earthquake Activity

City Distance Mag. Time & Date
No recent earthquake activity has been reported nearby.
Minimum magnitude displayed is 2.5.

Coastal Water Temperatures

Place Temperature
Bar Harbor, ME 55.9 °F
Eastport, ME 54.0 °F

Nearby Weather Stations